»·PEaware :: N700DK KPAE-KPDX

N700DK :: KPAE-KPDX

FLIGHT INFORMATION

Flight Status: Arrived
Operator: Privately registered:
United States
More flights under this callsign
Pilot: Brendan O. (14500)
Aircraft: CESSNA 340
(C340)
More flights by this aircraft type
Origin: KPAE Paine Field/Snohomish Co.
United States
Destination: KPDX Portland Intl
United States
More flights between these airports :: More routes between these airports
Route: PAINE6 PAINE SEA HELNS6
File this flight plan on PilotEdge
Remarks:
Altitude:
(Current/Filed)
15,000ft
Speed:
(Current/Filed)
185kts
Departed: 09-Feb-19 12:30 PM
Arrived: 09-Feb-19 01:25 PM
Distance/Time
Traveled:
140nm/0:55
Distance/Time
To Go:
Arrived

Flight Plot

Page will automatically refresh every two minutes.


Map Options




Map Legend


Flown Route
Filed Route
Departure Airport
Arrival Airport
Navaid (VOR, NDB)
Fix

Horizontal Profiles

Position Reports

Time Latitude Longitude Heading Altitude Ground
Speed
09-Feb-19 12:17 47.917990 -122.291500 269 574ft 0kts
09-Feb-19 12:18 47.917990 -122.291500 269 574ft 0kts
09-Feb-19 12:19 47.917990 -122.291500 269 574ft 0kts
09-Feb-19 12:20 47.917990 -122.291500 269 574ft 0kts
09-Feb-19 12:21 47.917990 -122.291500 269 574ft 0kts
09-Feb-19 12:22 47.917990 -122.291500 269 574ft 0kts
09-Feb-19 12:23 47.917990 -122.291500 269 574ft 0kts
09-Feb-19 12:24 47.917990 -122.291500 269 574ft 0kts
09-Feb-19 12:26 47.917990 -122.291500 269 574ft 0kts
09-Feb-19 12:27 47.917990 -122.291500 269 574ft 0kts
09-Feb-19 12:28 47.918875 -122.290249 3 572ft 12kts
09-Feb-19 12:29 47.920751 -122.287696 57 561ft 18kts
09-Feb-19 12:30 47.913174 -122.285660 179 604ft 102kts
09-Feb-19 12:31 47.882493 -122.284395 175 1626ft 127kts
09-Feb-19 12:32 47.848401 -122.275151 169 2788ft 134kts
09-Feb-19 12:33 47.812978 -122.260602 173 4298ft 143kts
09-Feb-19 12:34 47.780725 -122.255272 175 5671ft 149kts
09-Feb-19 12:35 47.743817 -122.250886 179 7099ft 157kts
09-Feb-19 12:36 47.695220 -122.244494 180 8864ft 164kts
09-Feb-19 12:37 47.644588 -122.240678 179 10549ft 170kts
09-Feb-19 12:38 47.596584 -122.232580 179 12045ft 177kts
09-Feb-19 12:39 47.546985 -122.224524 176 13504ft 183kts
09-Feb-19 12:40 47.494910 -122.213940 177 14753ft 198kts
09-Feb-19 12:41 47.435706 -122.201678 172 15265ft 224kts
09-Feb-19 12:42 47.371131 -122.183937 171 15292ft 242kts
09-Feb-19 12:43 47.304397 -122.166060 190 15268ft 240kts
09-Feb-19 12:44 47.240440 -122.190359 204 15207ft 233kts
09-Feb-19 12:45 47.180693 -122.220911 203 15203ft 223kts
09-Feb-19 12:45 47.131120 -122.241434 201 15207ft 221kts
09-Feb-19 12:46 47.072147 -122.265313 202 15208ft 220kts
09-Feb-19 12:48 47.002462 -122.291652 199 15209ft 223kts
09-Feb-19 12:49 46.941269 -122.309610 183 15207ft 228kts
09-Feb-19 12:49 46.891863 -122.309503 182 15962ft 204kts
09-Feb-19 12:50 46.831606 -122.309677 182 15982ft 224kts
09-Feb-19 12:51 46.768207 -122.309702 182 15841ft 232kts
09-Feb-19 12:52 46.704163 -122.307576 181 15782ft 230kts
09-Feb-19 12:53 46.640436 -122.309368 182 15781ft 228kts
09-Feb-19 12:54 46.576814 -122.309635 182 15782ft 228kts
09-Feb-19 12:55 46.513384 -122.309639 182 15783ft 228kts
09-Feb-19 12:56 46.449836 -122.309631 182 15786ft 228kts
09-Feb-19 12:57 46.386565 -122.309616 182 15789ft 227kts
09-Feb-19 12:58 46.323463 -122.309615 182 15789ft 227kts
09-Feb-19 12:59 46.259539 -122.310678 191 15783ft 229kts
09-Feb-19 13:00 46.200714 -122.340848 206 15789ft 223kts
09-Feb-19 13:01 46.138154 -122.372996 202 14486ft 246kts
09-Feb-19 13:02 46.073388 -122.409000 204 12545ft 257kts
09-Feb-19 13:03 46.008407 -122.445420 202 10736ft 232kts
09-Feb-19 13:04 45.948058 -122.476743 205 8617ft 250kts
09-Feb-19 13:05 45.896626 -122.511266 200 7006ft 222kts
09-Feb-19 13:06 45.851483 -122.534694 202 6865ft 190kts
09-Feb-19 13:07 45.809687 -122.557608 202 6875ft 181kts
09-Feb-19 13:08 45.769225 -122.579815 203 6879ft 179kts
09-Feb-19 13:09 45.736711 -122.616525 279 6882ft 168kts
09-Feb-19 13:10 45.744174 -122.665539 284 6243ft 185kts
09-Feb-19 13:11 45.753267 -122.715105 289 5344ft 191kts
09-Feb-19 13:12 45.762878 -122.766506 284 4837ft 178kts
09-Feb-19 13:13 45.784933 -122.897249 283 3938ft 174kts
09-Feb-19 13:14 45.780608 -122.960330 226 3828ft 161kts
09-Feb-19 13:15 45.742707 -122.963138 140 3640ft 166kts
09-Feb-19 13:16 45.720057 -122.917426 110 3854ft 151kts
09-Feb-19 13:17 45.701267 -122.863174 120 3919ft 152kts
09-Feb-19 13:18 45.678607 -122.819287 120 3758ft 125kts
09-Feb-19 13:19 45.665471 -122.774367 110 2670ft 123kts
09-Feb-19 13:20 45.648712 -122.732953 121 1783ft 116kts
09-Feb-19 13:21 45.633136 -122.694148 115 1835ft 110kts
09-Feb-19 13:22 45.617536 -122.651617 117 900ft 125kts
09-Feb-19 13:23 45.600626 -122.610910 118 334ft 111kts
09-Feb-19 13:24 45.590365 -122.585186 191 20ft 16kts
09-Feb-19 13:25 45.590270 -122.586045 279 20ft 0kts

Navigation Log

Ident Type
Flight plan parsing failed, navigation log unavailable